Time;durP1;ratioP1;P1;durP2;ratioP2;P2;SDS_P1;SDS_P2;PMS_P1;PMS_P2;Temp;Humidity;BMP_temperature;BMP_pressure;BME280_temperature;BME280_humidity;BME280_pressure;Samples;Min_cycle;Max_cycle;Signal;HPM_P1;HPM_P2
2021/03/31 00:03:39;;;;;;;18.63;9.65;;;;;;;10.82;42.85;101396.91;8652644;33;20196;-75
2021/03/31 00:08:43;;;;;;;15.70;10.52;;;;;;;10.66;43.16;101394.34;8652491;33;20320;-75
2021/03/31 00:13:45;;;;;;;20.17;10.20;;;;;;;10.59;43.19;101388.53;8655590;33;20526;-75
2021/03/31 00:18:49;;;;;;;18.10;9.38;;;;;;;10.77;42.11;101385.59;8628903;33;20234;-75
2021/03/31 00:23:52;;;;;;;17.02;9.13;;;;;;;10.78;41.44;101380.13;8662450;33;20186;-75
2021/03/31 00:28:55;;;;;;;18.30;9.23;;;;;;;10.87;41.45;101362.50;8660180;33;21015;-74
2021/03/31 00:33:57;;;;;;;15.20;9.82;;;;;;;10.69;42.23;101366.41;8659631;33;20445;-75
2021/03/31 00:39:00;;;;;;;17.67;9.10;;;;;;;10.67;41.97;101360.28;8656994;33;20415;-74
2021/03/31 00:44:03;;;;;;;18.77;10.90;;;;;;;10.64;41.96;101356.00;8655928;33;20654;-74
2021/03/31 00:49:05;;;;;;;18.23;8.83;;;;;;;10.70;41.72;101360.09;8655082;33;20592;-74
2021/03/31 00:54:08;;;;;;;16.45;9.20;;;;;;;10.71;40.76;101343.84;8658242;33;20158;-74
2021/03/31 00:59:10;;;;;;;16.13;9.02;;;;;;;10.77;40.63;101346.13;8661687;33;20638;-75
2021/03/31 01:04:13;;;;;;;17.38;8.65;;;;;;;10.76;40.83;101339.03;8636023;33;22235;-75
2021/03/31 01:09:16;;;;;;;18.42;9.43;;;;;;;10.67;40.27;101336.09;8662010;33;21103;-75
2021/03/31 01:14:26;;;;;;;17.10;8.68;;;;;;;10.72;40.48;101325.91;8656771;33;20420;-74
2021/03/31 01:20:03;;;;;;;18.60;8.52;;;;;;;10.71;40.40;101321.50;8593394;33;20427;-74
2021/03/31 01:25:26;;;;;;;14.00;7.32;;;;;;;10.75;40.55;101315.81;8603589;33;20182;-75
2021/03/31 01:30:39;;;;;;;13.75;7.50;;;;;;;10.67;39.60;101304.72;8605369;33;20405;-76
2021/03/31 01:35:43;;;;;;;12.48;7.60;;;;;;;10.64;39.36;101310.31;8621578;33;20194;-75
2021/03/31 01:40:49;;;;;;;14.38;7.72;;;;;;;10.50;39.83;101300.44;8621421;33;20179;-74
2021/03/31 01:45:54;;;;;;;16.25;8.10;;;;;;;10.50;39.45;101287.03;8608121;33;20451;-75
2021/03/31 01:51:03;;;;;;;16.27;7.63;;;;;;;10.50;39.72;101295.06;8611675;33;20457;-75
2021/03/31 01:56:07;;;;;;;15.02;6.82;;;;;;;10.49;39.47;101292.50;8617044;33;20463;-74
2021/03/31 02:01:11;;;;;;;13.98;7.50;;;;;;;10.43;40.02;101283.03;8620319;33;20183;-74
2021/03/31 02:06:15;;;;;;;14.52;8.65;;;;;;;10.28;40.03;101274.16;8625111;33;20425;-75
2021/03/31 02:11:18;;;;;;;14.98;7.68;;;;;;;10.33;39.75;101277.41;8624724;33;20303;-75
2021/03/31 02:16:21;;;;;;;13.38;7.38;;;;;;;10.24;39.41;101280.69;8623143;33;20409;-75
2021/03/31 02:21:28;;;;;;;16.80;8.40;;;;;;;10.19;40.03;101257.78;8618665;33;20315;-75
2021/03/31 02:26:30;;;;;;;13.88;7.72;;;;;;;10.08;40.02;101253.97;8619726;33;20151;-76
2021/03/31 02:31:33;;;;;;;10.98;7.30;;;;;;;10.04;39.79;101252.47;8619371;33;20144;-76
2021/03/31 02:36:39;;;;;;;14.65;7.80;;;;;;;9.90;40.41;101256.06;8617579;33;20730;-75
2021/03/31 02:41:45;;;;;;;16.73;7.90;;;;;;;9.92;40.77;101247.88;8619383;33;20460;-75
2021/03/31 02:46:50;;;;;;;14.55;8.02;;;;;;;9.86;40.77;101243.78;8618531;33;20216;-74
2021/03/31 02:51:54;;;;;;;13.37;7.60;;;;;;;9.92;40.28;101239.84;8625384;33;20434;-73
2021/03/31 02:56:57;;;;;;;12.20;7.90;;;;;;;9.90;40.63;101234.59;8625136;33;20167;-73
2021/03/31 03:01:59;;;;;;;15.63;7.68;;;;;;;9.89;40.63;101235.53;8622560;33;20189;-74
2021/03/31 03:07:04;;;;;;;16.77;8.68;;;;;;;9.85;40.67;101231.28;8619392;33;20183;-74
2021/03/31 03:12:09;;;;;;;15.05;8.18;;;;;;;9.91;40.50;101222.03;8619427;33;20536;-74
2021/03/31 03:17:11;;;;;;;16.10;7.97;;;;;;;9.92;40.69;101223.72;8618740;33;20422;-73
2021/03/31 03:22:15;;;;;;;17.17;8.23;;;;;;;9.90;40.89;101205.06;8619264;33;21515;-74
2021/03/31 03:27:19;;;;;;;14.27;7.78;;;;;;;9.90;40.88;101204.16;8621776;33;21099;-73
2021/03/31 03:32:22;;;;;;;13.95;7.75;;;;;;;9.80;41.21;101211.09;8624945;33;20427;-73
2021/03/31 03:37:25;;;;;;;15.57;8.65;;;;;;;9.65;41.73;101208.44;8626307;33;20440;-75
2021/03/31 03:42:28;;;;;;;14.25;8.27;;;;;;;9.68;41.66;101202.00;8625342;33;20646;-74
2021/03/31 03:47:30;;;;;;;14.90;8.10;;;;;;;9.64;41.61;101201.34;8620152;33;20488;-74
2021/03/31 03:52:34;;;;;;;17.13;8.10;;;;;;;9.57;41.54;101197.34;8621407;33;20965;-74
2021/03/31 03:57:36;;;;;;;17.63;8.68;;;;;;;9.49;42.34;101199.66;8626614;33;21083;-74
2021/03/31 04:02:39;;;;;;;15.73;8.50;;;;;;;9.45;42.21;101198.97;8626793;33;20402;-75
2021/03/31 04:07:42;;;;;;;12.30;7.85;;;;;;;9.43;42.14;101194.66;8615572;33;20179;-75
2021/03/31 04:12:45;;;;;;;17.17;8.57;;;;;;;9.38;42.31;101205.69;8607357;33;20423;-74
2021/03/31 04:17:49;;;;;;;15.52;8.63;;;;;;;9.40;42.44;101200.22;8616507;33;20183;-74
2021/03/31 04:22:53;;;;;;;17.15;8.23;;;;;;;9.35;42.68;101196.94;8618689;33;20212;-74
2021/03/31 04:27:58;;;;;;;15.20;8.52;;;;;;;9.33;43.10;101193.53;8615044;33;20178;-74
2021/03/31 04:33:00;;;;;;;15.80;8.63;;;;;;;9.25;43.14;101183.28;8607764;33;20414;-74
2021/03/31 04:38:09;;;;;;;18.60;8.90;;;;;;;9.27;42.80;101179.56;8604065;33;20411;-74
2021/03/31 04:43:11;;;;;;;22.48;9.18;;;;;;;9.38;42.49;101186.91;8605460;33;20422;-75
2021/03/31 04:48:13;;;;;;;17.15;8.32;;;;;;;9.40;42.72;101176.94;8602118;33;20902;-75
2021/03/31 04:53:16;;;;;;;18.77;8.73;;;;;;;9.32;43.14;101176.56;8601876;33;20193;-75
2021/03/31 04:58:19;;;;;;;19.15;9.05;;;;;;;9.32;43.22;101168.50;8600977;33;21495;-75
2021/03/31 05:03:21;;;;;;;15.43;9.00;;;;;;;9.39;43.32;101172.53;8598816;33;20435;-74
2021/03/31 05:08:24;;;;;;;19.00;8.68;;;;;;;9.40;43.35;101170.72;8603059;33;20158;-75
2021/03/31 05:13:26;;;;;;;17.17;8.82;;;;;;;9.42;43.38;101166.97;8602656;33;20224;-74
2021/03/31 05:18:29;;;;;;;18.67;9.13;;;;;;;9.45;43.36;101171.28;8604197;33;20567;-75
2021/03/31 05:23:32;;;;;;;14.02;8.57;;;;;;;9.48;43.43;101168.41;8614663;33;20428;-75
2021/03/31 05:28:34;;;;;;;18.65;9.38;;;;;;;9.41;43.56;101167.94;8613452;33;20431;-75
2021/03/31 05:33:37;;;;;;;16.15;9.90;;;;;;;9.40;43.98;101160.00;8614565;33;20186;-75
2021/03/31 05:38:40;;;;;;;17.02;9.27;;;;;;;9.33;44.15;101156.84;8612579;33;20225;-75
2021/03/31 05:43:43;;;;;;;19.80;9.63;;;;;;;9.42;43.95;101150.03;8629369;33;20202;-75
2021/03/31 05:48:45;;;;;;;19.48;9.73;;;;;;;9.50;43.91;101158.44;8596900;33;20404;-75
2021/03/31 05:53:49;;;;;;;15.45;9.07;;;;;;;9.59;43.81;101155.16;8598467;33;20960;-75
2021/03/31 05:58:51;;;;;;;17.52;9.40;;;;;;;9.66;44.07;101152.97;8597934;33;20396;-74
2021/03/31 06:03:56;;;;;;;18.30;9.45;;;;;;;9.73;44.10;101147.06;8597228;33;20503;-75
2021/03/31 06:08:59;;;;;;;21.33;9.63;;;;;;;9.85;44.11;101145.44;8594717;33;20649;-76
2021/03/31 06:14:02;;;;;;;20.50;9.38;;;;;;;10.05;43.77;101144.13;8597002;33;20166;-75
2021/03/31 06:19:16;;;;;;;22.17;10.07;;;;;;;10.11;43.81;101146.38;8595342;33;21311;-76
2021/03/31 06:24:21;;;;;;;17.65;9.25;;;;;;;10.22;nan;101132.25;8594767;33;20406;-75
2021/03/31 06:29:24;;;;;;;17.08;8.75;;;;;;;10.45;43.67;101133.38;8592405;33;20163;-75
2021/03/31 06:34:32;;;;;;;17.20;9.65;;;;;;;10.65;43.16;101132.00;8593877;33;21836;-74
2021/03/31 06:39:36;;;;;;;16.42;8.70;;;;;;;10.97;42.85;101129.75;8595415;33;20446;-74
2021/03/31 06:44:51;;;;;;;19.88;9.68;;;;;;;11.46;42.83;101139.69;8593335;33;21145;-75
2021/03/31 06:49:55;;;;;;;11.60;4.95;;;;;;;11.77;42.63;101126.66;8600564;33;20575;-75
2021/03/31 06:55:04;;;;;;;16.13;8.15;;;;;;;12.25;41.88;101133.84;8597264;33;20498;-74
2021/03/31 07:00:09;;;;;;;15.43;8.20;;;;;;;12.56;41.35;101130.53;8593954;33;20183;-74
2021/03/31 07:05:13;;;;;;;16.08;8.90;;;;;;;13.00;40.19;101130.69;8594842;33;20208;-74
2021/03/31 07:10:19;;;;;;;13.32;8.48;;;;;;;13.13;40.28;101130.59;8596253;33;20641;-74
2021/03/31 07:15:24;;;;;;;16.60;9.18;;;;;;;13.25;40.35;101132.31;8596852;33;20151;-74
2021/03/31 07:20:30;;;;;;;20.80;10.63;;;;;;;13.39;39.72;101124.00;8598861;33;20187;-74
2021/03/31 07:25:33;;;;;;;20.33;8.85;;;;;;;13.70;39.66;101118.78;8569518;33;20420;-74
2021/03/31 07:30:36;;;;;;;17.00;9.18;;;;;;;13.93;39.13;101116.84;8579395;33;21037;-73
2021/03/31 07:35:54;;;;;;;18.35;9.57;;;;;;;14.34;39.12;101115.19;8585716;33;20197;-74
2021/03/31 07:40:59;;;;;;;17.03;9.40;;;;;;;14.79;38.76;101115.81;8579431;33;21129;-74
2021/03/31 07:46:06;;;;;;;14.65;8.77;;;;;;;15.23;38.65;101108.31;8587745;33;20428;-74
2021/03/31 07:51:18;;;;;;;16.20;8.57;;;;;;;15.72;37.77;101099.47;8586088;33;20425;-74
2021/03/31 07:56:27;;;;;;;15.77;9.18;;;;;;;16.12;37.32;101097.47;8586310;33;22366;-74
2021/03/31 08:01:34;;;;;;;18.92;9.07;;;;;;;16.43;37.21;101102.78;8571544;33;20420;-74
2021/03/31 08:06:37;;;;;;;17.30;9.63;;;;;;;16.78;36.01;101107.56;8577405;33;21866;-74
2021/03/31 08:12:02;;;;;;;14.77;8.10;;;;;;;17.28;35.70;101108.22;8587511;33;20571;-75
2021/03/31 08:17:06;;;;;;;16.13;8.70;;;;;;;17.59;35.56;101111.50;8587840;33;20314;-75
2021/03/31 08:22:33;;;;;;;19.20;8.95;;;;;;;18.05;34.67;101109.63;8590653;33;20538;-75
2021/03/31 08:27:55;;;;;;;14.38;8.40;;;;;;;18.45;34.63;101106.38;8588942;33;20988;-75
2021/03/31 08:32:57;;;;;;;18.30;9.50;;;;;;;18.54;34.71;101112.72;8590498;33;20458;-75
2021/03/31 08:38:00;;;;;;;14.10;8.63;;;;;;;18.94;33.45;101105.88;8589687;33;20187;-75
2021/03/31 08:43:05;;;;;;;16.70;8.90;;;;;;;19.34;33.40;101104.38;8587180;33;20404;-75
2021/03/31 08:48:08;;;;;;;17.98;9.75;;;;;;;19.69;33.18;101092.38;8586902;33;20190;-75
2021/03/31 08:53:12;;;;;;;16.65;9.45;;;;;;;19.45;33.52;101093.16;8583325;33;20420;-76
2021/03/31 08:58:16;;;;;;;15.93;9.02;;;;;;;20.24;32.92;101091.78;8583703;33;21422;-76
2021/03/31 09:03:19;;;;;;;15.27;9.15;;;;;;;20.81;32.61;101090.03;8584051;33;20182;-75
2021/03/31 09:08:22;;;;;;;13.07;8.52;;;;;;;21.04;31.61;101079.25;8583317;33;20132;-75
2021/03/31 09:13:34;;;;;;;15.93;9.32;;;;;;;21.35;31.23;101071.91;8585691;33;20452;-76
2021/03/31 09:18:39;;;;;;;15.75;9.48;;;;;;;21.53;30.41;101062.59;8587071;33;20136;-75
2021/03/31 09:23:45;;;;;;;16.67;9.20;;;;;;;21.83;30.75;101064.50;8585783;33;20996;-75
2021/03/31 09:28:49;;;;;;;17.63;10.20;;;;;;;22.07;31.06;101057.09;8592466;33;20433;-76
2021/03/31 09:33:52;;;;;;;15.02;8.57;;;;;;;22.54;29.23;101056.88;8595864;33;20527;-75
2021/03/31 09:38:56;;;;;;;18.58;9.00;;;;;;;22.82;28.48;101047.16;8595185;33;20190;-76
2021/03/31 09:44:03;;;;;;;17.42;9.25;;;;;;;22.12;28.74;101049.19;8595990;33;20515;-76
2021/03/31 09:49:05;;;;;;;17.88;9.55;;;;;;;22.62;28.78;101036.75;8598500;33;20428;-76
2021/03/31 09:54:07;;;;;;;15.80;9.95;;;;;;;23.13;28.37;101025.06;8601914;33;20182;-76
2021/03/31 09:59:11;;;;;;;18.25;10.55;;;;;;;23.55;28.86;101028.91;8606684;33;20443;-76
2021/03/31 10:04:15;;;;;;;16.20;9.73;;;;;;;24.20;28.24;101027.03;8618400;33;20472;-75
2021/03/31 10:09:40;;;;;;;14.68;9.95;;;;;;;23.80;26.92;101022.03;8616340;33;20672;-77
2021/03/31 10:14:47;;;;;;;18.70;10.10;;;;;;;23.23;26.87;101022.88;8616232;33;20691;-75
2021/03/31 10:19:53;;;;;;;16.20;10.60;;;;;;;24.46;26.06;101015.41;8615706;33;20187;-76
2021/03/31 10:24:56;;;;;;;17.20;10.27;;;;;;;25.17;26.11;101007.78;8620812;33;20452;-76
2021/03/31 10:30:06;;;;;;;20.30;10.77;;;;;;;24.84;26.14;101009.50;8613101;33;20139;-75
2021/03/31 10:35:44;;;;;;;16.08;10.43;;;;;;;25.85;26.15;101009.66;8616967;33;20399;-75
2021/03/31 10:41:18;;;;;;;18.40;11.15;;;;;;;26.03;25.64;100998.03;8686030;33;20722;-75
2021/03/31 10:47:01;;;;;;;16.77;10.52;;;;;;;26.56;25.81;100986.97;8684655;33;20666;-75
2021/03/31 10:52:06;;;;;;;18.52;11.68;;;;;;;26.87;25.59;100977.97;8685129;33;20438;-75
2021/03/31 10:57:10;;;;;;;17.83;11.73;;;;;;;27.51;23.14;100978.09;8682595;33;20154;-75
2021/03/31 11:02:13;;;;;;;20.55;10.90;;;;;;;27.47;23.43;100969.41;8682055;33;20269;-75
2021/03/31 11:07:15;;;;;;;19.52;11.02;;;;;;;27.79;22.50;100969.41;8685619;33;20851;-75
2021/03/31 11:12:18;;;;;;;19.45;10.60;;;;;;;28.08;22.90;100964.28;8680854;33;20484;-75
2021/03/31 11:17:25;;;;;;;17.83;8.75;;;;;;;28.30;21.28;100959.19;8628739;33;20443;-75
2021/03/31 11:27:47;;;;;;;14.75;7.85;;;;;;;27.34;18.97;100944.66;8620766;33;20214;-75
2021/03/31 11:32:50;;;;;;;15.75;8.82;;;;;;;26.71;20.22;100942.59;8620361;33;20311;-75
2021/03/31 11:37:53;;;;;;;14.38;7.63;;;;;;;27.71;19.13;100931.06;8624584;33;20218;-75
2021/03/31 11:42:55;;;;;;;10.38;6.82;;;;;;;29.00;17.77;100929.25;8625154;33;20417;-74
2021/03/31 11:47:58;;;;;;;16.10;7.55;;;;;;;29.63;17.64;100919.63;8625194;33;21330;-75
2021/03/31 11:53:00;;;;;;;13.10;8.35;;;;;;;28.57;18.61;100919.16;8628847;33;20862;-75
2021/03/31 11:58:03;;;;;;;14.73;7.38;;;;;;;29.39;17.79;100910.41;8630687;33;20441;-76
2021/03/31 12:03:06;;;;;;;13.52;7.60;;;;;;;29.25;17.58;100906.16;8631043;33;21410;-74
2021/03/31 12:08:09;;;;;;;8.93;6.03;;;;;;;29.38;17.37;100892.97;8631519;33;20205;-76
2021/03/31 12:13:11;;;;;;;10.32;6.30;;;;;;;29.98;17.54;100885.59;8631466;33;20456;-75
2021/03/31 12:18:14;;;;;;;9.07;5.72;;;;;;;29.17;18.24;100884.38;8695225;33;20492;-75
2021/03/31 12:23:16;;;;;;;8.57;6.40;;;;;;;29.04;18.04;100886.22;8706279;33;20652;-75
2021/03/31 12:28:21;;;;;;;8.65;6.00;;;;;;;28.86;17.62;100876.06;8696072;33;20523;-76
2021/03/31 12:33:26;;;;;;;8.77;5.32;;;;;;;29.69;18.15;100871.63;8690049;33;20142;-76
2021/03/31 12:38:28;;;;;;;9.68;6.40;;;;;;;28.36;17.64;100856.06;8691301;33;20178;-75
2021/03/31 12:43:35;;;;;;;11.65;6.95;;;;;;;28.96;17.76;100850.59;8690027;33;20142;-75
2021/03/31 12:48:39;;;;;;;11.80;6.18;;;;;;;29.66;18.02;100847.19;8687274;33;21119;-75
2021/03/31 12:53:45;;;;;;;10.77;6.50;;;;;;;29.09;18.96;100839.38;8683019;33;21989;-76
2021/03/31 12:58:47;;;;;;;9.07;6.50;;;;;;;29.55;16.74;100837.75;8685263;33;20501;-76
2021/03/31 13:03:51;;;;;;;8.43;4.90;;;;;;;30.14;17.76;100823.94;8682043;33;20403;-76
2021/03/31 13:08:54;;;;;;;7.68;5.05;;;;;;;30.62;18.29;100821.84;8679162;33;20417;-76
2021/03/31 13:14:46;;;;;;;11.55;5.95;;;;;;;29.02;18.39;100821.16;8671836;33;20143;-75
2021/03/31 13:25:54;;;;;;;12.27;5.88;;;;;;;30.96;17.53;100800.59;8626358;33;20937;-76
2021/03/31 13:31:00;;;;;;;8.93;5.18;;;;;;;31.75;18.50;100797.75;8653247;33;20138;-76
2021/03/31 13:36:12;;;;;;;10.57;5.07;;;;;;;30.58;17.40;100787.38;8652516;33;20236;-75
2021/03/31 13:41:15;;;;;;;8.38;5.70;;;;;;;29.66;17.73;100794.59;8646810;33;20143;-75
2021/03/31 13:46:17;;;;;;;8.95;4.90;;;;;;;28.46;18.93;100782.59;8646329;33;20449;-75
2021/03/31 13:51:25;;;;;;;9.35;5.07;;;;;;;28.28;18.72;100772.44;8641051;33;22912;-75
2021/03/31 13:56:46;;;;;;;10.13;5.53;;;;;;;29.21;17.88;100774.94;8644395;33;20436;-75
2021/03/31 14:01:49;;;;;;;8.20;5.55;;;;;;;29.59;18.21;100757.84;8649613;33;20154;-75
2021/03/31 14:07:13;;;;;;;8.07;4.97;;;;;;;30.16;17.03;100755.28;8629042;33;20832;-75
2021/03/31 14:12:35;;;;;;;8.05;5.00;;;;;;;30.34;18.42;100747.88;8618755;33;21897;-76
2021/03/31 14:17:57;;;;;;;6.95;4.88;;;;;;;31.87;16.94;100742.13;8668714;33;20687;-76
2021/03/31 14:23:01;;;;;;;9.88;5.40;;;;;;;30.21;16.88;100732.38;8679440;33;20598;-75
2021/03/31 14:28:03;;;;;;;10.27;4.72;;;;;;;30.57;18.38;100728.34;8680786;33;20486;-75
2021/03/31 14:33:06;;;;;;;7.75;4.95;;;;;;;29.52;19.33;100730.31;8679775;33;20417;-77
2021/03/31 14:38:29;;;;;;;8.65;5.05;;;;;;;29.21;18.58;100719.63;8682143;33;20413;-74
2021/03/31 14:43:51;;;;;;;8.73;4.40;;;;;;;28.11;20.00;100713.41;8681135;33;20408;-74
2021/03/31 14:48:54;;;;;;;9.40;4.85;;;;;;;27.96;18.74;100724.00;8649586;33;20312;-74
2021/03/31 14:59:33;;;;;;;8.95;4.45;;;;;;;28.91;18.19;100720.53;8661866;33;20523;-74
2021/03/31 15:04:39;;;;;;;7.82;5.05;;;;;;;28.65;19.19;100714.34;8573156;33;20925;-74
2021/03/31 15:09:43;;;;;;;7.95;4.40;;;;;;;29.35;18.66;100718.31;8600055;33;20182;-74
2021/03/31 15:14:45;;;;;;;5.20;4.35;;;;;;;29.35;18.53;100698.94;8605728;33;20941;-75
2021/03/31 15:20:10;;;;;;;7.55;4.22;;;;;;;28.39;19.53;100700.94;8604402;33;20464;-75
2021/03/31 15:25:14;;;;;;;6.13;4.15;;;;;;;26.76;21.24;100702.25;8611218;33;20155;-74
2021/03/31 15:30:36;;;;;;;4.43;3.65;;;;;;;26.92;20.22;100683.25;8617474;33;20933;-74
2021/03/31 15:35:52;;;;;;;7.00;4.00;;;;;;;26.84;21.03;100679.94;8617228;33;20425;-75
2021/03/31 15:41:00;;;;;;;5.22;3.97;;;;;;;27.21;21.21;100689.16;8641069;33;20218;-75
2021/03/31 15:46:07;;;;;;;7.93;5.43;;;;;;;25.97;21.41;100685.13;8660196;33;20186;-74
2021/03/31 15:51:15;;;;;;;6.95;4.22;;;;;;;26.72;21.17;100677.88;8617148;33;20935;-73
2021/03/31 15:56:23;;;;;;;8.38;5.00;;;;;;;27.41;21.68;100677.09;8657529;33;20437;-73
2021/03/31 16:01:30;;;;;;;7.22;4.90;;;;;;;28.72;19.03;100664.50;8674818;33;20421;-74
2021/03/31 16:12:05;;;;;;;7.95;4.55;;;;;;;27.65;21.35;100659.63;8577094;33;20614;-74
2021/03/31 16:17:12;;;;;;;8.55;4.53;;;;;;;28.10;20.27;100652.91;8648173;33;20506;-73
2021/03/31 16:22:19;;;;;;;8.57;5.40;;;;;;;26.75;21.72;100654.56;8656374;33;21878;-73
2021/03/31 16:27:27;;;;;;;8.88;5.25;;;;;;;26.71;22.80;100656.06;8657595;33;20414;-73
2021/03/31 16:32:34;;;;;;;6.30;4.45;;;;;;;26.48;23.07;100662.19;8656770;33;20942;-73
2021/03/31 16:37:41;;;;;;;8.30;6.25;;;;;;;25.94;23.20;100650.63;8656008;33;20440;-73
2021/03/31 16:42:49;;;;;;;10.80;6.10;;;;;;;26.10;22.81;100649.25;8653936;33;20451;-74
2021/03/31 16:47:56;;;;;;;8.15;4.93;;;;;;;26.25;23.68;100649.84;8655735;33;20444;-74
2021/03/31 16:53:03;;;;;;;7.00;4.97;;;;;;;26.19;24.42;100642.47;8658518;33;20135;-74
2021/03/31 16:58:11;;;;;;;8.35;6.43;;;;;;;25.96;23.35;100637.50;8658903;33;20646;-73
2021/03/31 17:03:18;;;;;;;12.05;7.28;;;;;;;25.70;23.12;100640.38;8632917;33;20257;-73
2021/03/31 17:08:25;;;;;;;11.77;6.00;;;;;;;25.28;24.44;100642.59;8653732;33;20162;-74
2021/03/31 17:13:33;;;;;;;11.85;6.97;;;;;;;24.95;25.07;100636.06;8655255;33;20178;-73
2021/03/31 17:18:40;;;;;;;11.77;6.55;;;;;;;24.60;24.16;100629.13;8654177;33;20332;-74
2021/03/31 17:23:48;;;;;;;10.83;6.60;;;;;;;24.17;25.43;100633.06;8653093;33;20277;-72
2021/03/31 17:28:56;;;;;;;9.77;6.05;;;;;;;23.70;26.37;100631.22;8652594;33;20514;-73
2021/03/31 17:34:03;;;;;;;10.35;7.40;;;;;;;23.36;26.15;100631.03;8652244;33;20435;-73
2021/03/31 17:39:10;;;;;;;15.48;7.18;;;;;;;23.07;26.10;100629.38;8650923;33;20430;-72
2021/03/31 17:44:18;;;;;;;12.80;7.97;;;;;;;22.80;26.83;100630.25;8653062;33;20914;-73
2021/03/31 17:49:25;;;;;;;11.18;7.18;;;;;;;22.50;28.49;100630.41;8658489;33;20220;-74
2021/03/31 17:54:32;;;;;;;13.27;8.10;;;;;;;22.08;27.30;100630.19;8646751;33;20385;-73
2021/03/31 17:59:42;;;;;;;13.05;8.18;;;;;;;21.78;27.07;100634.06;8596066;33;20141;-72
2021/03/31 18:04:49;;;;;;;12.13;7.93;;;;;;;21.62;27.63;100641.41;8646831;33;21817;-71
2021/03/31 18:09:56;;;;;;;13.27;8.25;;;;;;;21.44;27.29;100638.22;8646227;33;20455;-71
2021/03/31 18:15:06;;;;;;;13.02;8.75;;;;;;;21.23;27.99;100639.84;8644695;33;20439;-71
2021/03/31 18:20:14;;;;;;;14.38;8.77;;;;;;;21.10;28.00;100650.56;8631929;33;20477;-71
2021/03/31 18:25:21;;;;;;;15.07;10.00;;;;;;;20.96;27.70;100646.75;8628408;33;20529;-72
2021/03/31 18:30:29;;;;;;;15.25;9.52;;;;;;;20.87;28.07;100652.47;8628602;33;20960;-72
2021/03/31 18:35:36;;;;;;;13.85;8.55;;;;;;;20.71;28.29;100648.88;8637852;33;20412;-72
2021/03/31 18:40:51;;;;;;;12.73;8.68;;;;;;;20.63;29.01;100653.56;8629194;33;21090;-72
2021/03/31 18:45:59;;;;;;;14.75;9.43;;;;;;;20.52;28.22;100657.56;8629409;33;20959;-71
2021/03/31 18:51:06;;;;;;;14.30;9.15;;;;;;;20.37;29.24;100646.59;8619784;33;21415;-73
2021/03/31 18:56:14;;;;;;;15.60;9.82;;;;;;;20.28;29.34;100651.22;8605788;33;20155;-71
2021/03/31 19:01:22;;;;;;;12.98;9.35;;;;;;;20.16;29.52;100660.00;8633731;33;20597;-71
2021/03/31 19:06:30;;;;;;;18.60;11.23;;;;;;;20.04;29.54;100654.97;8628621;33;20477;-71
2021/03/31 19:11:37;;;;;;;17.73;11.43;;;;;;;20.00;29.37;100661.81;8596630;33;20451;-71
2021/03/31 19:16:45;;;;;;;18.90;10.40;;;;;;;19.68;29.66;100660.94;8619060;33;20514;-71
2021/03/31 19:21:52;;;;;;;20.20;12.20;;;;;;;19.32;30.71;100659.72;8615928;33;22196;-72
2021/03/31 19:26:59;;;;;;;20.77;12.10;;;;;;;19.03;30.92;100655.69;8592769;33;20167;-71
2021/03/31 19:32:08;;;;;;;17.13;10.82;;;;;;;18.86;31.31;100664.91;8601281;33;20143;-71
2021/03/31 19:37:15;;;;;;;19.30;11.48;;;;;;;18.63;31.76;100662.00;8600492;33;20238;-71
2021/03/31 19:42:23;;;;;;;21.30;12.02;;;;;;;18.41;33.16;100656.22;8600974;33;20561;-71
2021/03/31 19:47:32;;;;;;;22.75;13.80;;;;;;;18.28;33.76;100651.28;8633742;33;20576;-71
2021/03/31 19:52:41;;;;;;;20.92;12.70;;;;;;;18.08;34.37;100656.19;8657498;33;20159;-71
2021/03/31 19:57:48;;;;;;;24.85;13.20;;;;;;;18.02;34.19;100658.69;8656825;33;21001;-72
2021/03/31 20:02:56;;;;;;;21.50;12.65;;;;;;;18.02;33.88;100645.97;8657555;33;20166;-73
2021/03/31 20:08:04;;;;;;;19.35;11.88;;;;;;;17.85;33.63;100649.63;8659350;33;20567;-72
2021/03/31 20:13:11;;;;;;;20.65;11.85;;;;;;;17.67;33.85;100649.75;8655004;33;21021;-73
2021/03/31 20:18:19;;;;;;;23.73;13.02;;;;;;;17.61;34.35;100645.84;8654876;33;20530;-72
2021/03/31 20:23:26;;;;;;;22.70;13.85;;;;;;;17.61;34.93;100653.13;8653090;33;20654;-72
2021/03/31 20:28:33;;;;;;;26.88;14.20;;;;;;;17.52;34.64;100652.22;8628476;33;21180;-73
2021/03/31 20:33:44;;;;;;;27.10;14.00;;;;;;;17.29;35.27;100654.66;8626625;33;20450;-73
2021/03/31 20:38:51;;;;;;;26.33;14.00;;;;;;;17.10;36.00;100652.16;8651816;33;20453;-73
2021/03/31 20:44:01;;;;;;;25.40;15.13;;;;;;;17.02;36.78;100648.38;8623403;33;20921;-73
2021/03/31 20:49:09;;;;;;;24.60;14.90;;;;;;;17.05;37.38;100647.19;8593928;33;20455;-73
2021/03/31 20:54:16;;;;;;;25.88;14.38;;;;;;;16.84;37.37;100657.56;8592236;33;20478;-72
2021/03/31 20:59:23;;;;;;;33.58;15.85;;;;;;;16.75;37.42;100657.50;8620820;33;20499;-72
2021/03/31 21:04:34;;;;;;;28.23;15.30;;;;;;;16.72;37.48;100657.81;8881757;33;21476;-72
2021/03/31 21:09:41;;;;;;;28.77;17.58;;;;;;;16.66;37.69;100649.47;8913026;33;20240;-73
2021/03/31 21:14:48;;;;;;;30.33;16.38;;;;;;;16.54;37.33;100657.88;8899166;33;20839;-72
2021/03/31 21:19:57;;;;;;;28.48;14.68;;;;;;;16.39;37.53;100667.56;8903331;33;20336;-72
2021/03/31 21:25:06;;;;;;;30.38;17.05;;;;;;;16.49;37.52;100660.19;8913188;33;20228;-72
2021/03/31 21:30:15;;;;;;;30.92;16.08;;;;;;;16.43;37.01;100657.25;8897186;33;20731;-73
2021/03/31 21:35:23;;;;;;;22.55;15.15;;;;;;;16.27;37.30;100645.25;8881615;33;20754;-72
2021/03/31 21:40:30;;;;;;;28.08;14.80;;;;;;;16.09;37.35;100645.22;8883877;33;20244;-72
2021/03/31 21:45:37;;;;;;;25.13;15.70;;;;;;;15.86;38.26;100646.69;8912481;33;20217;-72
2021/03/31 21:50:45;;;;;;;30.58;15.27;;;;;;;15.58;38.87;100653.97;8899615;33;20241;-72
2021/03/31 21:55:47;;;;;;;24.08;13.63;;;;;;;15.44;39.17;100653.47;8912030;33;20260;-72
2021/03/31 22:00:50;;;;;;;26.27;15.70;;;;;;;15.52;39.82;100655.41;8888364;33;20343;-72
2021/03/31 22:05:53;;;;;;;28.45;16.10;;;;;;;15.47;39.82;100660.44;8833855;33;20322;-72
2021/03/31 22:10:58;;;;;;;39.63;17.98;;;;;;;15.44;40.31;100653.47;8635557;33;20198;-73
2021/03/31 22:16:01;;;;;;;31.85;16.45;;;;;;;15.39;40.95;100654.91;8593881;33;20155;-73
2021/03/31 22:21:06;;;;;;;30.92;15.88;;;;;;;15.40;40.99;100645.78;8598278;33;20876;-72
2021/03/31 22:26:09;;;;;;;27.42;15.07;;;;;;;15.22;41.71;100646.53;8655816;33;20423;-73
2021/03/31 22:31:17;;;;;;;30.88;16.15;;;;;;;15.07;41.28;100636.34;8641644;33;20196;-72
2021/03/31 22:36:20;;;;;;;24.08;14.93;;;;;;;15.03;42.12;100652.03;8645614;33;20214;-73
2021/03/31 22:41:25;;;;;;;26.17;14.82;;;;;;;15.05;41.76;100648.13;8653705;33;20139;-72
2021/03/31 22:46:28;;;;;;;28.05;15.70;;;;;;;14.98;42.25;100644.34;8630113;33;20177;-72
2021/03/31 22:51:32;;;;;;;27.05;15.02;;;;;;;14.83;43.31;100646.63;8656579;33;20478;-73
2021/03/31 22:56:34;;;;;;;25.83;15.63;;;;;;;14.56;43.16;100643.84;8659433;33;20204;-72
2021/03/31 23:01:38;;;;;;;30.45;14.93;;;;;;;14.55;44.16;100639.44;8657398;33;20596;-72
2021/03/31 23:06:42;;;;;;;31.23;16.90;;;;;;;14.54;43.49;100640.44;8658958;33;20142;-72
2021/03/31 23:11:46;;;;;;;31.45;15.45;;;;;;;14.58;43.74;100641.84;8660234;33;20182;-72
2021/03/31 23:16:48;;;;;;;24.15;14.98;;;;;;;14.59;43.75;100638.16;8639688;33;20501;-72
2021/03/31 23:21:51;;;;;;;26.05;16.20;;;;;;;14.68;43.67;100636.44;8659972;33;20274;-72
2021/03/31 23:26:53;;;;;;;27.15;15.25;;;;;;;14.57;43.76;100638.31;8658249;33;20639;-72
2021/03/31 23:31:56;;;;;;;23.23;14.67;;;;;;;14.38;44.46;100638.28;8658104;33;21133;-72
2021/03/31 23:36:59;;;;;;;28.48;15.23;;;;;;;14.16;44.90;100625.91;8657838;33;20127;-72
2021/03/31 23:42:02;;;;;;;30.00;15.85;;;;;;;14.19;44.67;100622.94;8658822;33;20182;-73
2021/03/31 23:47:06;;;;;;;25.65;15.73;;;;;;;14.26;44.77;100620.50;8657198;33;20130;-72
2021/03/31 23:52:10;;;;;;;25.65;15.45;;;;;;;14.31;45.08;100619.06;8653672;33;20545;-72